createdAt,value
2019-05-03T00:01:13.197Z,47.00
2019-05-03T00:03:43.230Z,47.00
2019-05-03T00:06:13.290Z,46.90
2019-05-03T00:08:43.233Z,47.00
2019-05-03T00:11:13.179Z,46.90
2019-05-03T00:13:43.102Z,47.00
2019-05-03T00:16:19.346Z,47.00
2019-05-03T00:18:49.274Z,47.30
2019-05-03T00:21:19.221Z,48.00
2019-05-03T00:23:49.160Z,47.40
2019-05-03T00:26:19.175Z,47.60
2019-05-03T00:28:49.101Z,48.40
2019-05-03T00:31:19.048Z,48.20
2019-05-03T00:33:51.740Z,47.70
2019-05-03T00:36:30.131Z,47.60
2019-05-03T00:39:12.647Z,47.70
2019-05-03T00:41:42.648Z,47.70
2019-05-03T00:44:13.509Z,47.60
2019-05-03T00:46:43.439Z,47.70
2019-05-03T00:49:13.379Z,47.60
2019-05-03T00:51:43.390Z,47.70
2019-05-03T00:54:13.360Z,47.70
2019-05-03T00:56:44.578Z,47.60
2019-05-03T00:59:14.587Z,47.70
2019-05-03T01:01:44.519Z,47.70
2019-05-03T01:04:14.511Z,47.80
2019-05-03T01:06:44.680Z,47.80
2019-05-03T01:09:18.751Z,47.80
2019-05-03T01:11:48.750Z,48.40
2019-05-03T01:14:18.691Z,47.90
2019-05-03T01:16:48.718Z,47.90
2019-05-03T01:19:18.613Z,47.90
2019-05-03T01:21:48.631Z,47.90
2019-05-03T01:24:18.625Z,47.90
2019-05-03T01:26:48.582Z,48.00
2019-05-03T01:29:18.554Z,48.00
2019-05-03T01:31:48.475Z,48.10
2019-05-03T01:34:18.429Z,48.00
2019-05-03T01:36:48.286Z,48.00
2019-05-03T01:39:18.219Z,48.10
2019-05-03T01:41:48.320Z,48.00
2019-05-03T01:44:18.290Z,48.10
2019-05-03T01:46:51.546Z,48.10
2019-05-03T01:49:32.181Z,48.20
2019-05-03T01:52:22.479Z,48.10
2019-05-03T01:54:52.421Z,48.10
2019-05-03T01:57:22.374Z,48.10
2019-05-03T01:59:52.306Z,48.10
2019-05-03T02:02:42.007Z,49.00
2019-05-03T02:05:32.013Z,48.10
2019-05-03T02:08:02.274Z,48.20
2019-05-03T02:10:33.189Z,48.20
2019-05-03T02:13:03.097Z,48.20
2019-05-03T02:15:33.022Z,48.20
2019-05-03T02:18:03.027Z,48.20
2019-05-03T02:20:32.984Z,48.30
2019-05-03T02:23:02.936Z,48.30
2019-05-03T02:25:32.945Z,48.40
2019-05-03T02:28:02.973Z,48.30
2019-05-03T02:30:33.438Z,48.40
2019-05-03T02:33:04.274Z,48.20
2019-05-03T02:35:34.489Z,48.20
2019-05-03T02:38:04.696Z,47.70
2019-05-03T02:40:34.738Z,48.20
2019-05-03T02:43:19.306Z,48.20
2019-05-03T02:46:16.669Z,48.20
2019-05-03T02:49:10.956Z,48.30
2019-05-03T02:51:40.883Z,48.20
2019-05-03T02:54:10.806Z,48.30
2019-05-03T02:56:40.659Z,48.10
2019-05-03T02:59:10.659Z,48.20
2019-05-03T03:01:40.662Z,48.10
2019-05-03T03:04:10.725Z,48.10
2019-05-03T03:06:40.829Z,48.90
2019-05-03T03:09:10.773Z,48.10
2019-05-03T03:11:40.963Z,48.10
2019-05-03T03:14:16.443Z,48.10
2019-05-03T03:16:45.556Z,48.10
2019-05-03T03:19:17.158Z,48.10
2019-05-03T03:21:48.463Z,48.80
2019-05-03T03:24:20.350Z,48.00
2019-05-03T03:26:50.569Z,47.90
2019-05-03T03:29:25.371Z,48.00
2019-05-03T03:32:18.315Z,47.80
2019-05-03T03:35:03.896Z,47.40
2019-05-03T03:37:35.052Z,47.30
2019-05-03T03:40:06.024Z,47.20
2019-05-03T03:42:36.326Z,47.20
2019-05-03T03:45:06.440Z,47.10
2019-05-03T03:47:38.341Z,47.30
2019-05-03T03:50:08.416Z,46.90
2019-05-03T03:52:38.542Z,46.70
2019-05-03T03:55:08.610Z,46.70
2019-05-03T03:57:38.526Z,46.70
2019-05-03T04:00:08.878Z,46.70
2019-05-03T04:02:39.346Z,46.60
2019-05-03T04:05:09.360Z,46.70
2019-05-03T04:07:40.400Z,46.70
2019-05-03T04:10:10.263Z,46.70
2019-05-03T04:12:41.910Z,46.80
2019-05-03T04:15:29.825Z,46.80
2019-05-03T04:18:26.279Z,47.10
2019-05-03T04:20:56.945Z,47.20
2019-05-03T04:23:26.950Z,47.30
2019-05-03T04:25:57.006Z,47.40
2019-05-03T04:28:27.132Z,47.50
2019-05-03T04:30:57.167Z,47.50
2019-05-03T04:33:27.313Z,47.60
2019-05-03T04:35:57.297Z,47.60
2019-05-03T04:38:27.331Z,47.70
2019-05-03T04:40:57.331Z,47.70
2019-05-03T04:43:27.263Z,47.60
2019-05-03T04:46:18.376Z,47.70
2019-05-03T04:48:48.395Z,47.70
2019-05-03T04:51:18.390Z,47.80
2019-05-03T04:53:57.499Z,47.70
2019-05-03T04:56:27.511Z,47.80
2019-05-03T04:58:57.439Z,47.90
2019-05-03T05:01:27.418Z,47.90
2019-05-03T05:03:57.352Z,47.90
2019-05-03T05:06:27.365Z,48.00
2019-05-03T05:08:57.301Z,48.00
2019-05-03T05:11:27.282Z,48.00
2019-05-03T05:13:57.433Z,48.00
2019-05-03T05:16:27.460Z,48.00
2019-05-03T05:19:01.598Z,48.00
2019-05-03T05:21:38.078Z,48.10
2019-05-03T05:24:08.043Z,48.10
2019-05-03T05:26:56.495Z,48.10
2019-05-03T05:29:28.714Z,48.10
2019-05-03T05:31:58.641Z,48.20
2019-05-03T05:34:28.682Z,48.10
2019-05-03T05:36:58.712Z,48.10
2019-05-03T05:39:28.667Z,48.20
2019-05-03T05:41:58.606Z,48.30
2019-05-03T05:44:28.543Z,48.20
2019-05-03T05:47:16.305Z,48.30
2019-05-03T05:50:07.698Z,48.20
2019-05-03T05:52:38.663Z,48.20
2019-05-03T05:55:39.727Z,48.30
2019-05-03T05:58:25.391Z,48.30
2019-05-03T06:00:57.294Z,48.20
2019-05-03T06:03:27.190Z,48.30
2019-05-03T06:05:58.713Z,48.40
2019-05-03T06:08:49.846Z,48.30
2019-05-03T06:11:34.802Z,48.40
2019-05-03T06:14:15.320Z,48.40
2019-05-03T06:16:55.389Z,48.40
2019-05-03T06:19:35.614Z,48.40
2019-05-03T06:22:39.834Z,48.40
2019-05-03T06:25:16.947Z,48.40
2019-05-03T06:27:46.880Z,48.50
2019-05-03T06:30:30.375Z,48.30
2019-05-03T06:33:00.306Z,48.30
2019-05-03T06:35:30.356Z,48.40
2019-05-03T06:38:00.290Z,48.30
2019-05-03T06:40:30.235Z,48.40
2019-05-03T06:43:08.477Z,48.40
2019-05-03T06:45:31.891Z,48.40
2019-05-03T06:48:01.820Z,48.40
2019-05-03T06:50:31.750Z,48.40
2019-05-03T06:53:05.409Z,48.40
2019-05-03T06:55:35.066Z,48.40
2019-05-03T06:58:05.180Z,48.50
2019-05-03T07:01:00.390Z,48.40
2019-05-03T07:03:38.577Z,48.40
2019-05-03T07:06:40.757Z,48.30
2019-05-03T07:09:28.568Z,48.40
2019-05-03T07:11:58.559Z,48.30
2019-05-03T07:14:28.594Z,48.20
2019-05-03T07:16:58.594Z,48.30
2019-05-03T07:19:29.612Z,48.30
2019-05-03T07:21:59.630Z,48.40
2019-05-03T07:24:29.587Z,48.40
2019-05-03T07:26:59.518Z,48.20
2019-05-03T07:29:29.442Z,48.20
2019-05-03T07:31:59.378Z,49.00
2019-05-03T07:34:29.350Z,48.40
2019-05-03T07:36:59.354Z,48.20
2019-05-03T07:39:29.346Z,48.20
2019-05-03T07:41:59.292Z,48.10
2019-05-03T07:44:29.372Z,48.10
2019-05-03T07:46:59.377Z,48.20
2019-05-03T07:49:29.366Z,48.80
2019-05-03T07:51:59.374Z,48.90
2019-05-03T07:54:29.408Z,49.00
2019-05-03T07:57:05.929Z,48.90
2019-05-03T07:59:56.070Z,48.70
2019-05-03T08:02:27.492Z,48.80
2019-05-03T08:04:57.672Z,48.70
2019-05-03T08:07:27.582Z,48.70
2019-05-03T08:09:57.519Z,48.50
2019-05-03T08:12:27.568Z,48.50
2019-05-03T08:14:57.598Z,48.70
2019-05-03T08:17:28.511Z,48.70
2019-05-03T08:19:58.557Z,49.20
2019-05-03T08:22:28.603Z,48.80
2019-05-03T08:24:59.601Z,48.70
2019-05-03T08:27:29.628Z,48.80
2019-05-03T08:29:59.633Z,49.90
2019-05-03T08:32:44.549Z,50.40
2019-05-03T08:35:39.452Z,51.00
2019-05-03T08:38:09.457Z,53.10
2019-05-03T08:40:45.556Z,52.90
2019-05-03T08:43:16.702Z,51.40
2019-05-03T08:45:46.709Z,50.90
2019-05-03T08:48:17.694Z,50.80
2019-05-03T08:50:47.702Z,50.50
2019-05-03T08:53:17.637Z,51.00
2019-05-03T08:55:47.574Z,52.00
2019-05-03T08:58:17.436Z,52.40
2019-05-03T09:00:48.329Z,52.40
2019-05-03T09:03:18.289Z,52.10
2019-05-03T09:05:49.492Z,52.30
2019-05-03T09:08:19.478Z,52.40
2019-05-03T09:11:09.011Z,53.30
2019-05-03T09:14:00.710Z,54.80
2019-05-03T09:16:30.829Z,53.90
2019-05-03T09:19:00.870Z,55.10
2019-05-03T09:21:30.750Z,55.50
2019-05-03T09:24:00.747Z,55.60
2019-05-03T09:26:30.702Z,56.70
2019-05-03T09:29:00.630Z,57.30
2019-05-03T09:31:30.634Z,57.40
2019-05-03T09:34:00.574Z,58.10
2019-05-03T09:36:30.581Z,58.10
2019-05-03T09:39:00.535Z,58.50
2019-05-03T09:41:32.137Z,58.70
2019-05-03T09:44:02.183Z,58.90
2019-05-03T09:46:32.241Z,58.90
2019-05-03T09:49:11.062Z,58.80
2019-05-03T09:51:35.012Z,59.00
2019-05-03T09:54:12.018Z,59.50
2019-05-03T09:56:58.609Z,59.90
2019-05-03T09:59:29.492Z,59.60
2019-05-03T10:02:00.872Z,59.80
2019-05-03T10:04:30.937Z,61.60
2019-05-03T10:07:00.980Z,61.30
2019-05-03T10:09:31.030Z,62.40
2019-05-03T10:12:01.746Z,63.30
2019-05-03T10:14:31.752Z,64.60
2019-05-03T10:17:11.056Z,64.80
2019-05-03T10:19:41.049Z,65.70
2019-05-03T10:24:57.256Z,67.20
2019-05-03T10:27:28.815Z,67.00
2019-05-03T10:30:09.688Z,67.80
2019-05-03T10:32:44.853Z,67.60
2019-05-03T10:35:15.342Z,67.40
2019-05-03T10:37:45.468Z,66.90
2019-05-03T10:40:24.506Z,66.40
2019-05-03T10:42:55.305Z,65.80
2019-05-03T10:45:27.915Z,65.40
2019-05-03T10:47:57.180Z,65.20
2019-05-03T10:50:27.194Z,64.80
2019-05-03T10:53:05.640Z,64.80
2019-05-03T10:55:35.896Z,64.30
2019-05-03T10:58:15.988Z,63.40
2019-05-03T11:00:52.911Z,64.30
2019-05-03T11:03:19.643Z,62.50
2019-05-03T11:05:49.618Z,61.80
2019-05-03T11:08:19.507Z,61.50
2019-05-03T11:10:49.529Z,61.40
2019-05-03T11:13:19.819Z,61.60
2019-05-03T11:15:49.950Z,61.50
2019-05-03T11:18:19.962Z,61.20
2019-05-03T11:20:49.903Z,61.70
2019-05-03T11:23:19.858Z,61.20
2019-05-03T11:25:49.842Z,61.00
2019-05-03T11:28:25.329Z,61.00
2019-05-03T11:31:01.834Z,60.80
2019-05-03T11:33:36.978Z,60.70
2019-05-03T11:36:31.746Z,60.90
2019-05-03T11:39:01.142Z,60.90
2019-05-03T11:41:35.827Z,60.80
2019-05-03T11:44:27.566Z,60.70
2019-05-03T11:46:58.498Z,60.50
2019-05-03T11:49:29.643Z,60.20
2019-05-03T11:51:59.523Z,59.90
2019-05-03T11:54:30.465Z,59.70
2019-05-03T11:57:02.086Z,59.20
2019-05-03T11:59:32.023Z,59.90
2019-05-03T12:02:18.794Z,59.20
2019-05-03T12:04:48.647Z,58.90
2019-05-03T12:07:38.987Z,58.50
2019-05-03T12:10:13.828Z,58.40
2019-05-03T12:12:37.233Z,58.30
2019-05-03T12:15:07.210Z,58.20
2019-05-03T12:17:51.053Z,58.10
2019-05-03T12:20:12.103Z,58.20
2019-05-03T12:22:43.030Z,58.20
2019-05-03T12:25:16.296Z,58.10
2019-05-03T12:27:45.167Z,58.10
2019-05-03T12:30:15.375Z,58.30
2019-05-03T12:32:45.498Z,58.10
2019-05-03T12:35:15.516Z,52.70
2019-05-03T12:37:45.514Z,52.10
2019-05-03T12:40:15.721Z,54.80
2019-05-03T12:42:45.679Z,55.10
2019-05-03T12:45:15.760Z,54.70
2019-05-03T12:47:45.735Z,54.60
2019-05-03T12:50:15.801Z,54.60
2019-05-03T12:52:50.480Z,55.00
2019-05-03T12:55:17.446Z,55.10
2019-05-03T12:57:47.481Z,55.00
2019-05-03T13:00:35.270Z,54.90
2019-05-03T13:03:11.758Z,54.50
2019-05-03T13:05:42.165Z,54.50
2019-05-03T13:08:35.763Z,54.60
2019-05-03T13:11:06.136Z,54.60
2019-05-03T13:13:39.226Z,54.50
2019-05-03T13:16:12.712Z,54.40
2019-05-03T13:18:45.801Z,54.20
2019-05-03T13:21:15.455Z,54.00
2019-05-03T13:23:45.449Z,53.80
2019-05-03T13:26:15.418Z,53.90
2019-05-03T13:28:45.800Z,54.20
2019-05-03T13:31:16.216Z,54.30
2019-05-03T13:33:46.376Z,54.10
2019-05-03T13:36:16.352Z,53.70
2019-05-03T13:38:46.359Z,53.80
2019-05-03T13:41:16.394Z,52.40
2019-05-03T13:43:46.398Z,51.90
2019-05-03T13:46:16.364Z,52.10
2019-05-03T13:48:49.060Z,52.00
2019-05-03T13:51:17.961Z,51.60
2019-05-03T13:53:47.906Z,51.10
2019-05-03T13:56:17.891Z,51.10
2019-05-03T13:58:47.836Z,52.10
2019-05-03T14:01:17.895Z,50.70
2019-05-03T14:03:47.853Z,51.00
2019-05-03T14:06:17.790Z,50.30
2019-05-03T14:08:47.739Z,49.80
2019-05-03T14:11:17.981Z,50.30
2019-05-03T14:13:47.995Z,50.00
2019-05-03T14:16:18.021Z,50.10
2019-05-03T14:18:49.531Z,50.50
2019-05-03T14:21:28.037Z,50.60
2019-05-03T14:24:10.443Z,50.70
2019-05-03T14:26:41.276Z,50.90
2019-05-03T14:29:11.361Z,51.00
2019-05-03T14:31:41.350Z,51.20
2019-05-03T14:34:11.305Z,51.40
2019-05-03T14:36:41.358Z,51.50
2019-05-03T14:39:11.359Z,51.70
2019-05-03T14:41:41.431Z,51.80
2019-05-03T14:44:14.539Z,52.00
2019-05-03T14:46:43.090Z,52.20
2019-05-03T14:49:14.819Z,52.50
2019-05-03T14:51:45.554Z,52.50
2019-05-03T14:54:15.988Z,52.60
2019-05-03T14:56:55.834Z,52.80
2019-05-03T14:59:47.846Z,52.90
2019-05-03T15:02:43.702Z,53.10
2019-05-03T15:05:07.192Z,53.60
2019-05-03T15:07:37.213Z,53.50
2019-05-03T15:10:07.234Z,54.00
2019-05-03T15:12:37.434Z,54.50
2019-05-03T15:15:07.400Z,55.20
2019-05-03T15:17:37.360Z,55.20
2019-05-03T15:20:07.398Z,55.40
2019-05-03T15:22:37.305Z,55.20
2019-05-03T15:25:07.915Z,55.40
2019-05-03T15:27:37.864Z,55.70
2019-05-03T15:30:08.006Z,56.30
2019-05-03T15:32:37.936Z,56.30
2019-05-03T15:35:08.077Z,56.30
2019-05-03T15:37:38.018Z,56.70
2019-05-03T15:40:08.256Z,56.90
2019-05-03T15:42:40.287Z,57.00
2019-05-03T15:45:39.596Z,57.10
2019-05-03T15:48:21.345Z,57.30
2019-05-03T15:50:51.297Z,57.30
2019-05-03T15:53:21.239Z,57.20
2019-05-03T15:55:51.097Z,57.50
2019-05-03T15:58:21.059Z,57.70
2019-05-03T16:00:51.000Z,57.80
2019-05-03T16:03:20.979Z,57.70
2019-05-03T16:05:50.881Z,58.00
2019-05-03T16:08:20.895Z,58.10
2019-05-03T16:10:50.887Z,58.70
2019-05-03T16:13:21.009Z,58.50
2019-05-03T16:15:50.950Z,59.20
2019-05-03T16:18:20.910Z,59.10
2019-05-03T16:20:50.849Z,58.60
2019-05-03T16:23:20.964Z,58.60
2019-05-03T16:25:50.910Z,58.30
2019-05-03T16:28:26.981Z,57.70
2019-05-03T16:31:07.207Z,57.50
2019-05-03T16:33:37.319Z,57.70
2019-05-03T16:36:07.338Z,57.90
2019-05-03T16:38:37.386Z,57.90
2019-05-03T16:41:07.322Z,57.90
2019-05-03T16:43:37.310Z,57.70
2019-05-03T16:46:07.279Z,57.60
2019-05-03T16:48:37.302Z,57.40
2019-05-03T16:51:07.309Z,57.30
2019-05-03T16:53:37.362Z,57.40
2019-05-03T16:56:07.329Z,57.20
2019-05-03T16:58:37.362Z,57.50
2019-05-03T17:01:08.399Z,57.50
2019-05-03T17:03:46.992Z,57.30
2019-05-03T17:06:41.859Z,57.20
2019-05-03T17:09:35.224Z,57.00
2019-05-03T17:12:07.071Z,56.70
2019-05-03T17:14:37.022Z,56.50
2019-05-03T17:17:07.308Z,56.40
2019-05-03T17:19:37.573Z,56.30
2019-05-03T17:22:07.627Z,55.90
2019-05-03T17:24:37.716Z,55.80
2019-05-03T17:27:07.645Z,55.70
2019-05-03T17:29:37.704Z,55.70
2019-05-03T17:32:07.801Z,55.70
2019-05-03T17:34:37.711Z,55.50
2019-05-03T17:37:07.685Z,55.30
2019-05-03T17:39:47.849Z,55.30
2019-05-03T17:42:45.092Z,55.20
2019-05-03T17:45:17.171Z,55.20
2019-05-03T17:47:47.102Z,55.10
2019-05-03T17:50:16.974Z,55.20
2019-05-03T17:52:54.568Z,55.00
2019-05-03T17:55:35.225Z,55.00
2019-05-03T17:58:17.220Z,55.10
2019-05-03T18:00:59.783Z,54.90
2019-05-03T18:03:32.182Z,54.70
2019-05-03T18:06:25.497Z,54.70
2019-05-03T18:09:14.968Z,54.70
2019-05-03T18:11:47.514Z,54.70
2019-05-03T18:14:17.493Z,54.90
2019-05-03T18:16:47.432Z,54.70
2019-05-03T18:19:17.459Z,54.60
2019-05-03T18:21:47.382Z,54.60
2019-05-03T18:24:17.347Z,54.50
2019-05-03T18:26:47.334Z,54.60
2019-05-03T18:29:17.297Z,54.50
2019-05-03T18:31:47.255Z,54.50
2019-05-03T18:34:19.908Z,54.50
2019-05-03T18:36:48.976Z,54.40
2019-05-03T18:39:19.004Z,54.40
2019-05-03T18:41:48.993Z,54.40
2019-05-03T18:44:34.686Z,54.30
2019-05-03T18:47:07.531Z,54.60
2019-05-03T18:49:37.606Z,54.60
2019-05-03T18:52:07.552Z,54.10
2019-05-03T18:54:37.882Z,54.40
2019-05-03T18:57:07.826Z,54.40
2019-05-03T18:59:40.997Z,54.10
2019-05-03T19:02:11.003Z,54.10
2019-05-03T19:04:48.087Z,53.90
2019-05-03T19:07:35.923Z,53.70
2019-05-03T19:10:31.485Z,53.70
2019-05-03T19:13:14.848Z,54.00
2019-05-03T19:15:44.649Z,54.10
2019-05-03T19:18:25.641Z,53.90
2019-05-03T19:20:55.624Z,53.70
2019-05-03T19:23:25.569Z,53.60
2019-05-03T19:25:55.495Z,53.60
2019-05-03T19:28:25.432Z,53.70
2019-05-03T19:30:55.614Z,53.80
2019-05-03T19:33:25.630Z,53.90
2019-05-03T19:35:55.678Z,53.80
2019-05-03T19:38:25.662Z,54.10
2019-05-03T19:40:55.610Z,55.00
2019-05-03T19:43:27.128Z,55.40
2019-05-03T19:45:57.340Z,55.90
2019-05-03T19:48:27.217Z,56.00
2019-05-03T19:50:57.273Z,56.30
2019-05-03T19:53:49.366Z,57.00
2019-05-03T19:56:21.636Z,57.60
2019-05-03T19:58:56.595Z,58.10
2019-05-03T20:01:57.822Z,59.20
2019-05-03T20:04:35.867Z,59.20
2019-05-03T20:07:25.060Z,59.30
2019-05-03T20:09:54.880Z,59.10
2019-05-03T20:12:24.913Z,59.10
2019-05-03T20:14:54.860Z,59.00
2019-05-03T20:17:24.849Z,59.20
2019-05-03T20:19:54.774Z,59.10
2019-05-03T20:22:24.710Z,58.70
2019-05-03T20:24:55.272Z,58.40
2019-05-03T20:27:25.453Z,58.00
2019-05-03T20:29:55.543Z,58.10
2019-05-03T20:32:25.616Z,58.20
2019-05-03T20:34:55.731Z,57.90
2019-05-03T20:37:25.914Z,57.80
2019-05-03T20:39:55.966Z,57.60
2019-05-03T20:42:44.849Z,57.50
2019-05-03T20:45:20.676Z,57.40
2019-05-03T20:47:54.783Z,57.30
2019-05-03T20:50:24.981Z,57.00
2019-05-03T20:52:55.121Z,56.90
2019-05-03T20:55:25.631Z,56.50
2019-05-03T20:57:55.887Z,56.70
2019-05-03T21:00:26.734Z,56.30
2019-05-03T21:02:57.438Z,56.30
2019-05-03T21:05:31.199Z,56.30
2019-05-03T21:07:59.276Z,56.20
2019-05-03T21:10:29.210Z,56.10
2019-05-03T21:12:59.198Z,55.70
2019-05-03T21:15:38.758Z,55.70
2019-05-03T21:18:30.423Z,55.80
2019-05-03T21:21:08.245Z,55.70
2019-05-03T21:23:41.643Z,55.70
2019-05-03T21:26:13.525Z,55.50
2019-05-03T21:28:44.948Z,55.50
2019-05-03T21:31:15.622Z,55.40
2019-05-03T21:33:45.778Z,55.40
2019-05-03T21:36:15.732Z,55.20
2019-05-03T21:38:45.670Z,55.20
2019-05-03T21:41:15.791Z,55.30
2019-05-03T21:43:45.875Z,55.10
2019-05-03T21:46:21.585Z,55.10
2019-05-03T21:48:58.909Z,55.10
2019-05-03T21:51:28.913Z,55.00
2019-05-03T21:53:58.852Z,54.90
2019-05-03T21:56:28.810Z,54.90
2019-05-03T21:58:58.678Z,54.90
2019-05-03T22:01:28.652Z,55.00
2019-05-03T22:03:58.657Z,55.00
2019-05-03T22:06:28.649Z,54.80
2019-05-03T22:08:58.623Z,54.70
2019-05-03T22:11:28.594Z,54.70
2019-05-03T22:14:01.699Z,54.70
2019-05-03T22:16:42.237Z,54.70
2019-05-03T22:19:12.296Z,54.70
2019-05-03T22:21:55.326Z,54.80
2019-05-03T22:24:55.403Z,54.60
2019-05-03T22:27:29.934Z,54.50
2019-05-03T22:29:59.902Z,54.60
2019-05-03T22:32:29.872Z,54.60
2019-05-03T22:34:59.778Z,54.60
2019-05-03T22:37:29.710Z,54.40
2019-05-03T22:39:59.734Z,54.30
2019-05-03T22:42:29.665Z,54.30
2019-05-03T22:44:59.558Z,54.30
2019-05-03T22:47:29.598Z,54.20
2019-05-03T22:49:59.566Z,54.10
2019-05-03T22:52:29.545Z,54.10
2019-05-03T22:54:59.490Z,54.10
2019-05-03T22:57:29.482Z,54.10
2019-05-03T22:59:59.440Z,53.90
2019-05-03T23:02:29.393Z,54.00
2019-05-03T23:04:59.338Z,53.80
2019-05-03T23:07:29.350Z,53.70
2019-05-03T23:09:59.397Z,53.70
2019-05-03T23:12:29.279Z,53.70
2019-05-03T23:14:59.135Z,53.50
2019-05-03T23:17:29.065Z,53.50
2019-05-03T23:20:27.721Z,53.50
2019-05-03T23:22:57.649Z,53.40
2019-05-03T23:25:27.581Z,53.30
2019-05-03T23:27:57.551Z,53.20
2019-05-03T23:30:27.574Z,53.30
2019-05-03T23:32:57.512Z,53.20
2019-05-03T23:35:27.454Z,53.10
2019-05-03T23:37:57.379Z,53.10
2019-05-03T23:40:27.236Z,53.10
2019-05-03T23:42:57.198Z,53.00
2019-05-03T23:45:27.138Z,53.00
2019-05-03T23:47:57.085Z,53.20
2019-05-03T23:50:27.101Z,53.30
2019-05-03T23:52:57.092Z,53.80
2019-05-03T23:55:45.989Z,53.40
2019-05-03T23:58:15.984Z,53.30
